Time;durP1;ratioP1;P1;durP2;ratioP2;P2;SDS_P1;SDS_P2;PMS_P1;PMS_P2;Temp;Humidity;BMP_temperature;BMP_pressure;BME280_temperature;BME280_humidity;BME280_pressure;Samples;Min_cycle;Max_cycle;Signal;HPM_P1;HPM_P2
2021/08/15 00:05:18;;;;;;;49.73;46.37;;;;;;;18.22;100.00;101675.55;1972228;73;31444;-74
2021/08/15 00:10:42;;;;;;;49.00;45.80;;;;;;;17.92;100.00;101679.88;1972192;73;31531;-75
2021/08/15 00:16:07;;;;;;;49.97;46.63;;;;;;;17.88;100.00;101676.88;1972162;73;33470;-75
2021/08/15 00:21:32;;;;;;;51.33;47.77;;;;;;;17.80;100.00;101669.75;1971985;73;31060;-75
2021/08/15 00:26:56;;;;;;;50.10;46.70;;;;;;;17.61;100.00;101652.42;1972018;73;30985;-74
2021/08/15 00:32:21;;;;;;;49.40;46.20;;;;;;;17.88;100.00;101645.12;1972025;73;31072;-75
2021/08/15 00:37:46;;;;;;;48.80;45.80;;;;;;;17.91;100.00;101651.50;1971986;73;30980;-72
2021/08/15 00:43:32;;;;;;;47.57;44.53;;;;;;;17.42;100.00;101652.22;2016150;71;31006;-72
2021/08/15 00:49:02;;;;;;;49.03;45.93;;;;;;;17.61;100.00;101652.42;1972203;73;31093;-74
2021/08/15 00:54:26;;;;;;;46.93;43.77;;;;;;;17.44;100.00;101649.95;1972194;73;31439;-75
2021/08/15 00:59:51;;;;;;;46.97;43.77;;;;;;;17.57;100.00;101647.14;1972191;73;33464;-74
2021/08/15 01:05:17;;;;;;;51.20;47.67;;;;;;;17.38;100.00;101640.78;1971983;73;31069;-75
2021/08/15 01:10:42;;;;;;;48.80;45.37;;;;;;;17.21;100.00;101637.19;1972142;73;31514;-75
2021/08/15 01:16:08;;;;;;;49.07;45.90;;;;;;;17.32;100.00;101629.98;1971990;73;30972;-72
2021/08/15 01:21:34;;;;;;;49.57;46.10;;;;;;;17.35;100.00;101627.94;1972193;73;31574;-75
2021/08/15 01:27:01;;;;;;;49.43;46.23;;;;;;;17.23;100.00;101618.64;1971992;73;31036;-74
2021/08/15 01:32:27;;;;;;;50.47;47.13;;;;;;;17.34;100.00;101606.05;1971969;73;30979;-74
2021/08/15 01:37:56;;;;;;;49.47;46.07;;;;;;;17.38;100.00;101586.02;1972227;73;32998;-74
2021/08/15 01:43:20;;;;;;;47.97;44.87;;;;;;;17.45;100.00;101593.47;1971932;73;31081;-74
2021/08/15 01:48:45;;;;;;;48.10;45.10;;;;;;;17.51;100.00;101580.13;1972005;73;31192;-74
2021/08/15 01:54:11;;;;;;;48.33;44.93;;;;;;;17.45;100.00;101586.45;1971960;73;30960;-75
2021/08/15 01:59:36;;;;;;;50.63;47.43;;;;;;;17.33;100.00;101583.31;1971990;73;31474;-75
2021/08/15 02:05:01;;;;;;;49.57;46.27;;;;;;;17.46;100.00;101584.44;1971986;73;31059;-75
2021/08/15 02:10:28;;;;;;;49.57;46.10;;;;;;;17.27;100.00;101585.41;1972090;73;30991;-74
2021/08/15 02:15:54;;;;;;;50.10;46.67;;;;;;;17.23;100.00;101576.52;1971986;73;30968;-75
2021/08/15 02:21:18;;;;;;;48.53;44.97;;;;;;;16.94;100.00;101585.25;1972174;73;31390;-75
2021/08/15 02:26:45;;;;;;;50.53;47.03;;;;;;;16.77;100.00;101582.21;1971978;73;31162;-74
2021/08/15 02:32:09;;;;;;;48.53;45.33;;;;;;;17.10;100.00;101581.56;1972166;73;33040;-75
2021/08/15 02:37:37;;;;;;;49.80;46.30;;;;;;;17.01;100.00;101580.05;1972118;72;31048;-75
2021/08/15 02:43:05;;;;;;;50.17;46.57;;;;;;;17.03;100.00;101572.73;1972021;73;31022;-74
2021/08/15 02:48:32;;;;;;;48.33;44.83;;;;;;;16.79;100.00;101580.75;1971964;73;30966;-75
2021/08/15 02:53:56;;;;;;;49.70;46.20;;;;;;;16.79;100.00;101578.50;1972184;72;31058;-75
2021/08/15 02:59:20;;;;;;;49.73;46.30;;;;;;;16.34;100.00;101578.14;1972065;73;33045;-74
2021/08/15 03:04:46;;;;;;;50.60;46.93;;;;;;;16.35;100.00;101573.36;1971978;73;31050;-75
2021/08/15 03:10:12;;;;;;;52.77;49.27;;;;;;;16.14;100.00;101575.68;1972134;73;33467;-75
2021/08/15 03:15:38;;;;;;;51.70;47.90;;;;;;;16.07;100.00;101567.41;1972136;73;33429;-74
2021/08/15 03:21:03;;;;;;;52.47;48.57;;;;;;;15.93;100.00;101559.76;1972061;73;32925;-74
2021/08/15 03:26:47;;;;;;;48.60;45.00;;;;;;;16.06;100.00;101557.32;2016145;71;32885;-73
2021/08/15 03:32:12;;;;;;;47.10;43.70;;;;;;;16.22;100.00;101549.75;1972102;73;32903;-74
2021/08/15 03:37:57;;;;;;;49.07;45.43;;;;;;;16.17;100.00;101551.23;2016498;71;30870;-74
2021/08/15 03:43:25;;;;;;;48.50;45.00;;;;;;;15.78;100.00;101547.97;1972200;73;31471;-74
2021/08/15 03:48:49;;;;;;;48.10;44.17;;;;;;;15.76;100.00;101551.06;1972141;73;32975;-74
2021/08/15 03:54:33;;;;;;;49.60;45.77;;;;;;;15.89;100.00;101541.06;2016300;71;33388;-73
2021/08/15 03:59:57;;;;;;;50.13;46.17;;;;;;;15.98;100.00;101544.84;1972123;73;32955;-74
2021/08/15 04:05:21;;;;;;;51.40;47.50;;;;;;;15.89;100.00;101540.49;1971981;73;32964;-73
2021/08/15 04:10:45;;;;;;;48.40;44.57;;;;;;;15.88;100.00;101529.58;1971997;73;30965;-74
2021/08/15 04:16:10;;;;;;;48.63;44.53;;;;;;;15.97;100.00;101533.36;1972020;73;33002;-77
2021/08/15 04:21:34;;;;;;;48.63;44.77;;;;;;;15.99;100.00;101517.66;1971950;73;32925;-74
2021/08/15 04:26:59;;;;;;;49.53;45.57;;;;;;;15.98;100.00;101513.17;1971943;73;30963;-72
2021/08/15 04:32:24;;;;;;;48.73;44.87;;;;;;;16.06;100.00;101515.28;1972028;73;32994;-74
2021/08/15 04:37:49;;;;;;;50.83;46.87;;;;;;;16.05;100.00;101516.41;1972024;73;30968;-76
2021/08/15 04:43:14;;;;;;;49.80;46.10;;;;;;;16.09;100.00;101516.09;1972120;73;32995;-76
2021/08/15 04:48:38;;;;;;;51.93;47.70;;;;;;;16.07;100.00;101523.39;1971954;73;33014;-74
2021/08/15 04:54:03;;;;;;;51.83;48.00;;;;;;;16.11;100.00;101526.41;1971965;73;32983;-74
2021/08/15 04:59:28;;;;;;;52.17;48.20;;;;;;;15.89;100.00;101539.09;1972162;73;32899;-76
2021/08/15 05:04:53;;;;;;;52.63;48.37;;;;;;;15.92;100.00;101538.47;1972227;73;32988;-74
2021/08/15 05:10:18;;;;;;;51.00;46.97;;;;;;;16.15;100.00;101549.32;1972182;73;33567;-72
2021/08/15 05:15:42;;;;;;;52.63;48.37;;;;;;;16.35;100.00;101554.58;1971959;73;33541;-74
2021/08/15 05:21:07;;;;;;;53.20;49.03;;;;;;;16.37;100.00;101542.50;1972184;73;31554;-74
2021/08/15 05:26:31;;;;;;;52.30;48.40;;;;;;;16.40;100.00;101547.48;1972163;73;33453;-75
2021/08/15 05:31:56;;;;;;;50.27;46.57;;;;;;;16.46;100.00;101543.19;1972046;73;32999;-75
2021/08/15 05:37:21;;;;;;;53.37;49.17;;;;;;;16.62;100.00;101544.60;1972244;72;33474;-75
2021/08/15 05:42:45;;;;;;;52.73;48.70;;;;;;;16.60;100.00;101544.09;1972135;73;33465;-74
2021/08/15 05:48:10;;;;;;;50.30;46.37;;;;;;;16.69;100.00;101543.61;1971981;73;31085;-74
2021/08/15 05:53:35;;;;;;;50.50;46.70;;;;;;;16.73;100.00;101548.30;1972241;73;31437;-74
2021/08/15 05:59:00;;;;;;;51.87;48.07;;;;;;;16.74;100.00;101540.72;1972179;72;31545;-74
2021/08/15 06:04:28;;;;;;;52.53;48.67;;;;;;;16.81;100.00;101544.77;1971981;73;32901;-74
2021/08/15 06:09:53;;;;;;;52.27;48.53;;;;;;;16.95;100.00;101543.39;1971981;73;31055;-72
2021/08/15 06:15:17;;;;;;;51.40;47.90;;;;;;;17.09;100.00;101539.19;1971977;72;32902;-72
2021/08/15 06:20:42;;;;;;;51.30;47.57;;;;;;;17.06;100.00;101539.81;1972032;73;33026;-74
2021/08/15 06:26:06;;;;;;;50.97;47.47;;;;;;;17.29;100.00;101531.73;1972059;73;32916;-74
2021/08/15 06:31:31;;;;;;;51.60;47.90;;;;;;;17.32;100.00;101524.67;1972245;73;30981;-76
2021/08/15 06:36:55;;;;;;;49.97;46.27;;;;;;;17.43;100.00;101512.89;1972170;73;33455;-75
2021/08/15 06:42:20;;;;;;;49.03;45.73;;;;;;;17.50;100.00;101530.13;1937408;74;31606;-74
2021/08/15 06:47:45;;;;;;;49.23;45.73;;;;;;;17.55;100.00;101523.57;1972150;73;33007;-74
2021/08/15 06:53:09;;;;;;;49.30;45.90;;;;;;;17.69;100.00;101516.81;1972164;73;33540;-74
2021/08/15 06:58:40;;;;;;;49.13;45.77;;;;;;;17.82;100.00;101513.70;1972160;73;33518;-74
2021/08/15 07:04:05;;;;;;;50.50;47.23;;;;;;;17.95;100.00;101521.82;1972138;72;33417;-75
2021/08/15 07:09:29;;;;;;;49.80;46.20;;;;;;;17.97;100.00;101526.56;1972151;73;31453;-72
2021/08/15 07:14:54;;;;;;;48.87;45.53;;;;;;;18.10;100.00;101520.02;1972204;73;31526;-74
2021/08/15 07:20:18;;;;;;;50.00;46.60;;;;;;;18.22;100.00;101513.27;1972021;73;31120;-74
2021/08/15 07:25:42;;;;;;;47.90;44.67;;;;;;;18.37;100.00;101496.55;1972171;73;31069;-74
2021/08/15 07:31:13;;;;;;;48.47;44.90;;;;;;;18.46;100.00;101501.66;1972247;73;31083;-74
2021/08/15 07:36:37;;;;;;;46.63;43.33;;;;;;;18.62;100.00;101489.69;1972165;73;31438;-73
2021/08/15 07:42:02;;;;;;;47.23;43.97;;;;;;;18.60;100.00;101484.98;1972000;73;31468;-74
2021/08/15 07:47:26;;;;;;;44.67;41.67;;;;;;;18.73;100.00;101478.98;1972232;73;30999;-74
2021/08/15 07:52:51;;;;;;;45.40;42.40;;;;;;;18.94;100.00;101475.00;1972007;73;31049;-74
2021/08/15 07:58:16;;;;;;;45.13;41.93;;;;;;;19.22;100.00;101475.56;1971999;73;30958;-75
2021/08/15 08:03:40;;;;;;;44.67;41.57;;;;;;;19.32;100.00;101475.26;1971917;73;31027;-75
2021/08/15 08:09:05;;;;;;;45.33;42.17;;;;;;;19.47;100.00;101474.22;1971956;73;30962;-74
2021/08/15 08:14:30;;;;;;;47.33;44.03;;;;;;;19.50;100.00;101472.75;1971996;73;30980;-74
2021/08/15 08:19:54;;;;;;;47.83;44.47;;;;;;;19.68;100.00;101466.55;1971994;73;31067;-74
2021/08/15 08:25:19;;;;;;;44.93;41.80;;;;;;;19.73;100.00;101458.73;1972183;73;30960;-74
2021/08/15 08:30:44;;;;;;;45.47;42.50;;;;;;;19.85;100.00;101451.84;1972174;73;33535;-72
2021/08/15 08:36:08;;;;;;;44.90;41.80;;;;;;;19.87;100.00;101448.70;1971988;73;30967;-75
2021/08/15 08:41:34;;;;;;;47.27;44.13;;;;;;;19.74;100.00;101458.98;1950654;73;30986;-75
2021/08/15 08:47:03;;;;;;;46.43;43.33;;;;;;;19.81;100.00;101457.09;1972164;73;33472;-75
2021/08/15 08:52:30;;;;;;;47.80;44.70;;;;;;;19.73;100.00;101457.90;1972215;72;30973;-75
2021/08/15 08:57:56;;;;;;;50.40;47.20;;;;;;;19.75;100.00;101453.61;1972071;73;31047;-74
2021/08/15 09:03:20;;;;;;;44.67;41.77;;;;;;;20.16;100.00;101447.97;1972027;73;30966;-74
2021/08/15 09:08:49;;;;;;;43.60;40.70;;;;;;;20.53;100.00;101445.01;1972086;73;31070;-75
2021/08/15 09:14:16;;;;;;;43.73;40.93;;;;;;;20.78;100.00;101442.07;1971992;73;30996;-72
2021/08/15 09:19:50;;;;;;;44.10;41.20;;;;;;;20.74;100.00;101436.03;1971960;73;30978;-76
2021/08/15 09:25:36;;;;;;;43.50;40.70;;;;;;;20.67;100.00;101430.89;2016226;71;30967;-73
2021/08/15 09:31:31;;;;;;;45.30;42.37;;;;;;;20.63;100.00;101442.63;2016390;71;33276;-75
2021/08/15 09:36:57;;;;;;;46.47;43.43;;;;;;;20.55;100.00;101422.91;1972171;73;33411;-75
2021/08/15 09:45:45;;;;;;;42.73;40.07;;;;;;;20.91;100.00;101409.11;2061212;69;30581;-75
2021/08/15 09:48:21;;;;;;;46.90;44.10;;;;;;;21.08;100.00;101401.94;1950714;73;24166;-75
2021/08/15 09:51:06;;;;;;;42.47;39.77;;;;;;;21.21;100.00;101408.52;2030784;71;24096;-75
2021/08/15 09:53:37;;;;;;;43.30;40.50;;;;;;;21.41;100.00;101401.21;2030798;71;24170;-75
2021/08/15 09:56:08;;;;;;;43.05;40.45;;;;;;;21.34;100.00;101394.72;2030821;71;24186;-75
2021/08/15 09:58:39;;;;;;;42.77;40.07;;;;;;;21.46;100.00;101389.13;2030780;71;24198;-75
2021/08/15 10:01:10;;;;;;;41.97;39.27;;;;;;;21.41;100.00;101385.67;2030686;71;24162;-75
2021/08/15 10:03:42;;;;;;;43.50;40.80;;;;;;;21.34;100.00;101382.00;2030682;71;24556;-75
2021/08/15 10:06:16;;;;;;;45.57;42.57;;;;;;;21.25;100.00;101384.06;2030693;70;24173;-75
2021/08/15 10:08:48;;;;;;;46.37;43.37;;;;;;;20.94;100.00;101385.83;2030797;71;24105;-75
2021/08/15 10:11:18;;;;;;;44.50;41.70;;;;;;;20.74;100.00;101389.44;2030763;71;24104;-75
2021/08/15 10:13:48;;;;;;;47.53;44.43;;;;;;;20.73;100.00;101392.84;2030760;71;24174;-75
2021/08/15 10:16:19;;;;;;;47.43;44.33;;;;;;;20.71;100.00;101383.08;2030776;70;24182;-75
2021/08/15 10:18:53;;;;;;;45.90;42.80;;;;;;;20.88;100.00;101379.53;2030808;70;24167;-75
2021/08/15 10:21:24;;;;;;;45.23;42.10;;;;;;;21.15;100.00;101379.64;2030682;71;24173;-75
2021/08/15 10:23:56;;;;;;;44.65;41.68;;;;;;;21.29;100.00;101375.13;2030721;71;24124;-75
2021/08/15 10:26:45;;;;;;;44.05;41.25;;;;;;;21.22;100.00;101370.02;1949047;73;24120;-74
2021/08/15 10:33:18;;;;;;;43.83;41.00;;;;;;;21.41;100.00;101360.23;2016584;71;30983;-74
2021/08/15 10:36:07;;;;;;;43.50;40.70;;;;;;;21.38;100.00;101363.76;1974977;72;24119;-74
2021/08/15 10:41:49;;;;;;;44.63;41.92;;;;;;;21.11;100.00;101338.26;1950926;73;31000;-75
2021/08/15 10:47:17;;;;;;;46.95;43.95;;;;;;;21.14;100.00;101337.59;1972012;73;30989;-72
2021/08/15 10:52:52;;;;;;;46.73;43.87;;;;;;;21.08;100.00;101327.08;1972034;73;31050;-73
2021/08/15 10:58:37;;;;;;;45.83;42.93;;;;;;;21.07;100.00;101329.66;1972295;73;30968;-75
2021/08/15 11:04:08;;;;;;;44.17;41.57;;;;;;;21.44;100.00;101305.24;1972212;73;31531;-74
2021/08/15 11:09:58;;;;;;;43.30;40.70;;;;;;;21.60;100.00;101295.54;1972272;73;31566;-75
2021/08/15 11:15:24;;;;;;;42.85;40.33;;;;;;;21.59;100.00;101281.16;1972215;73;31473;-75
2021/08/15 11:21:05;;;;;;;40.50;38.10;;;;;;;21.84;100.00;101278.62;1972030;73;31108;-75
2021/08/15 11:26:30;;;;;;;38.42;36.33;;;;;;;21.93;100.00;101256.75;1972080;73;31431;-75
2021/08/15 11:31:57;;;;;;;38.92;36.83;;;;;;;22.15;100.00;101257.70;1971841;73;31001;-75
2021/08/15 11:37:24;;;;;;;36.88;34.88;;;;;;;22.30;100.00;101249.66;1972015;73;31474;-75
2021/08/15 11:43:00;;;;;;;36.73;34.83;;;;;;;22.55;100.00;101239.95;1972049;73;31024;-75
2021/08/15 11:48:28;;;;;;;31.70;30.15;;;;;;;22.32;100.00;101226.92;1972031;73;31008;-73
2021/08/15 11:53:53;;;;;;;29.65;28.25;;;;;;;22.20;100.00;101214.20;1971747;73;30955;-76
2021/08/15 11:59:20;;;;;;;31.30;29.80;;;;;;;22.47;100.00;101215.44;1971925;73;31466;-75
2021/08/15 12:05:08;;;;;;;30.25;28.85;;;;;;;22.50;100.00;101220.41;2016002;71;30929;-74
2021/08/15 12:10:37;;;;;;;30.97;29.48;;;;;;;22.55;100.00;101218.72;1971834;73;30942;-76
2021/08/15 12:16:15;;;;;;;29.65;28.23;;;;;;;22.57;100.00;101222.86;1972092;73;31081;-72
2021/08/15 12:21:46;;;;;;;26.15;24.95;;;;;;;22.58;100.00;101209.53;1956313;73;31096;-76
2021/08/15 12:27:13;;;;;;;27.35;25.95;;;;;;;22.66;100.00;101196.66;1972055;73;31510;-75
2021/08/15 12:32:38;;;;;;;27.40;26.00;;;;;;;22.70;100.00;101192.53;1971827;73;31024;-75
2021/08/15 12:38:31;;;;;;;28.27;26.70;;;;;;;22.76;100.00;101189.70;2016181;71;31348;-73
2021/08/15 12:44:50;;;;;;;24.95;23.65;;;;;;;23.10;100.00;101189.67;2016168;71;31418;-74
2021/08/15 12:50:24;;;;;;;28.95;27.45;;;;;;;22.96;100.00;101179.34;1971931;73;32999;-75
2021/08/15 12:55:51;;;;;;;28.50;27.07;;;;;;;22.91;100.00;101176.17;1971777;73;31043;-76
2021/08/15 13:01:16;;;;;;;29.02;27.27;;;;;;;23.09;100.00;101169.59;1972115;73;30956;-75
2021/08/15 13:06:42;;;;;;;30.52;29.02;;;;;;;23.00;100.00;101175.42;1972009;73;31466;-72
2021/08/15 13:12:07;;;;;;;28.87;27.37;;;;;;;23.04;100.00;101181.19;1971832;73;31412;-74
2021/08/15 13:17:35;;;;;;;26.93;25.53;;;;;;;22.84;100.00;101175.97;1971879;73;31100;-74
2021/08/15 13:23:03;;;;;;;24.23;22.93;;;;;;;23.03;100.00;101181.77;1971858;72;31160;-76
2021/08/15 13:28:27;;;;;;;24.65;23.45;;;;;;;22.86;100.00;101166.50;1971720;73;31054;-72
2021/08/15 13:33:52;;;;;;;28.62;27.22;;;;;;;22.91;100.00;101162.00;1972115;73;31606;-75
2021/08/15 13:39:16;;;;;;;25.48;24.32;;;;;;;22.97;100.00;101157.73;1972056;73;31453;-72
2021/08/15 13:44:41;;;;;;;21.45;20.45;;;;;;;23.07;100.00;101162.86;1971912;73;31461;-76
2021/08/15 13:50:08;;;;;;;20.40;19.30;;;;;;;23.15;100.00;101149.70;1971820;73;30999;-75
2021/08/15 13:55:33;;;;;;;19.42;18.25;;;;;;;23.06;100.00;101151.28;1972030;73;31521;-75
2021/08/15 14:01:17;;;;;;;15.58;14.68;;;;;;;23.10;100.00;101142.91;2015973;71;30988;-77
2021/08/15 14:06:42;;;;;;;13.98;13.03;;;;;;;23.06;100.00;101146.23;1971814;73;30961;-75
2021/08/15 14:12:09;;;;;;;13.50;12.58;;;;;;;22.94;100.00;101154.19;1971837;73;31064;-75
2021/08/15 14:17:34;;;;;;;13.50;12.68;;;;;;;22.93;100.00;101150.31;1972054;73;31045;-75
2021/08/15 14:22:59;;;;;;;12.90;12.07;;;;;;;23.05;100.00;101149.66;1971994;73;30987;-75
2021/08/15 14:28:26;;;;;;;11.93;11.15;;;;;;;23.24;100.00;101146.11;1971855;73;31020;-72
2021/08/15 14:33:52;;;;;;;13.03;12.03;;;;;;;23.18;100.00;101134.83;1972039;73;30953;-72
2021/08/15 14:39:19;;;;;;;12.15;11.20;;;;;;;23.29;100.00;101133.09;1971926;72;30950;-75
2021/08/15 14:44:45;;;;;;;12.70;11.88;;;;;;;23.21;100.00;101127.59;1972132;73;31062;-73
2021/08/15 14:50:11;;;;;;;13.72;12.73;;;;;;;23.18;100.00;101127.74;1971860;73;30949;-75
2021/08/15 14:55:37;;;;;;;12.70;11.60;;;;;;;23.32;100.00;101128.72;1971891;73;30941;-75
2021/08/15 15:01:02;;;;;;;12.13;11.20;;;;;;;23.03;100.00;101127.93;1971920;73;31064;-76
2021/08/15 15:06:26;;;;;;;12.07;11.33;;;;;;;23.10;100.00;101125.91;1971924;73;31569;-73
2021/08/15 15:11:51;;;;;;;12.43;11.68;;;;;;;23.03;100.00;101122.27;1971975;73;31018;-75
2021/08/15 15:17:17;;;;;;;13.03;11.95;;;;;;;22.98;100.00;101123.94;1972045;73;31033;-76
2021/08/15 15:22:45;;;;;;;13.08;12.05;;;;;;;22.99;100.00;101112.84;1971681;73;31218;-77
2021/08/15 15:28:10;;;;;;;12.65;11.68;;;;;;;23.10;100.00;101121.66;1971827;73;31086;-75
2021/08/15 15:33:34;;;;;;;12.58;11.53;;;;;;;22.92;100.00;101113.25;1971876;73;30978;-72
2021/08/15 15:38:59;;;;;;;12.07;11.15;;;;;;;22.96;100.00;101113.58;1972020;73;31568;-75
2021/08/15 15:44:43;;;;;;;12.53;11.40;;;;;;;23.01;100.00;101113.32;2015942;71;30918;-78
2021/08/15 15:50:10;;;;;;;12.60;11.63;;;;;;;23.10;100.00;101101.81;1971975;73;31467;-75
2021/08/15 15:55:34;;;;;;;12.88;11.78;;;;;;;23.29;100.00;101106.75;1971860;73;30969;-75
2021/08/15 16:00:59;;;;;;;12.07;11.18;;;;;;;23.01;100.00;101097.73;1972003;73;31087;-75
2021/08/15 16:06:24;;;;;;;12.82;11.63;;;;;;;22.89;100.00;101111.15;1972021;73;31485;-75
2021/08/15 16:11:48;;;;;;;13.03;12.07;;;;;;;22.73;100.00;101109.67;1971863;73;31064;-72
2021/08/15 16:17:14;;;;;;;13.03;12.07;;;;;;;22.69;100.00;101116.66;1971890;73;31465;-74
2021/08/15 16:22:39;;;;;;;12.35;11.65;;;;;;;22.78;100.00;101112.25;1971818;73;30971;-75
2021/08/15 16:28:05;;;;;;;12.47;11.68;;;;;;;22.68;100.00;101114.14;1971904;73;30967;-72
2021/08/15 16:33:30;;;;;;;14.70;13.60;;;;;;;22.55;100.00;101102.63;1971992;73;31418;-75
2021/08/15 16:38:54;;;;;;;12.10;11.33;;;;;;;22.64;100.00;101112.63;1971984;73;31518;-75
2021/08/15 16:44:19;;;;;;;11.88;11.18;;;;;;;22.48;100.00;101110.92;1971791;73;31457;-74
2021/08/15 16:49:43;;;;;;;11.33;10.82;;;;;;;22.37;100.00;101123.95;1971797;73;30962;-75
2021/08/15 16:55:09;;;;;;;12.37;11.68;;;;;;;22.14;100.00;101123.06;1972002;73;30997;-75
2021/08/15 17:00:36;;;;;;;18.23;16.82;;;;;;;22.06;100.00;101124.61;1972065;72;31456;-78
2021/08/15 17:06:02;;;;;;;13.83;12.88;;;;;;;21.89;100.00;101116.34;1971650;73;30969;-72
2021/08/15 17:11:28;;;;;;;13.55;12.68;;;;;;;21.84;100.00;101109.51;1971930;73;31603;-72
2021/08/15 17:16:55;;;;;;;13.58;12.78;;;;;;;21.79;100.00;101112.81;1971822;73;31081;-74
2021/08/15 17:22:23;;;;;;;12.53;11.83;;;;;;;21.63;100.00;101119.54;1948929;73;31097;-74
2021/08/15 17:30:34;;;;;;;13.78;13.13;;;;;;;21.59;100.00;101105.29;2060926;69;30586;-72
2021/08/15 17:33:05;;;;;;;13.22;12.53;;;;;;;21.51;100.00;101109.06;2030432;71;24105;-75
2021/08/15 17:35:35;;;;;;;13.27;12.57;;;;;;;21.65;100.00;101108.72;2030514;70;24113;-75
2021/08/15 17:38:06;;;;;;;13.22;12.53;;;;;;;21.54;100.00;101113.17;2030461;71;24100;-75
2021/08/15 17:40:36;;;;;;;13.10;12.40;;;;;;;21.46;100.00;101104.22;2030463;71;24116;-74
2021/08/15 17:43:07;;;;;;;13.80;13.05;;;;;;;21.44;100.00;101097.50;2030527;71;24594;-74
2021/08/15 17:45:39;;;;;;;13.98;13.20;;;;;;;21.43;100.00;101099.28;2030481;71;24174;-75
2021/08/15 17:48:09;;;;;;;14.90;14.00;;;;;;;21.35;100.00;101094.78;2030700;71;24197;-74
2021/08/15 17:50:40;;;;;;;15.72;14.80;;;;;;;21.34;100.00;101105.05;2030432;71;24217;-75
2021/08/15 17:53:10;;;;;;;16.35;15.38;;;;;;;21.27;100.00;101099.95;2030435;71;24536;-74
2021/08/15 17:55:40;;;;;;;16.48;15.58;;;;;;;21.26;100.00;101091.85;2030448;70;24113;-74
2021/08/15 17:58:11;;;;;;;16.02;15.23;;;;;;;21.16;100.00;101102.19;2030415;71;24568;-75
2021/08/15 18:00:41;;;;;;;15.58;14.68;;;;;;;21.22;100.00;101092.31;2030422;71;24543;-74
2021/08/15 18:03:11;;;;;;;14.58;13.88;;;;;;;21.25;100.00;101085.95;2030466;71;24513;-75
2021/08/15 18:05:44;;;;;;;15.48;14.78;;;;;;;21.21;100.00;101092.08;2029954;71;26304;-75
2021/08/15 18:08:15;;;;;;;15.60;14.73;;;;;;;21.13;100.00;101087.36;2030430;70;24093;-75
2021/08/15 18:10:46;;;;;;;16.52;15.58;;;;;;;21.11;100.00;101095.31;2030365;71;24582;-74
2021/08/15 18:13:16;;;;;;;15.73;14.90;;;;;;;21.07;100.00;101091.53;2030530;71;24178;-74
2021/08/15 18:15:46;;;;;;;15.90;15.20;;;;;;;;;;2030393;70;24100;-76
2021/08/15 18:18:16;;;;;;;15.63;14.93;;;;;;;21.33;100.00;101083.61;2030281;71;24112;-74
2021/08/15 18:20:46;;;;;;;16.12;15.32;;;;;;;21.54;100.00;101084.31;2025938;71;24186;-74
2021/08/15 18:23:17;;;;;;;17.40;16.57;;;;;;;21.38;100.00;101082.55;1993354;72;24220;-75
2021/08/15 18:25:47;;;;;;;18.15;17.40;;;;;;;21.13;100.00;101085.95;1993635;72;24122;-75
2021/08/15 18:28:18;;;;;;;18.77;17.67;;;;;;;21.06;100.00;101092.13;1993393;72;24139;-75
2021/08/15 18:30:48;;;;;;;18.60;17.70;;;;;;;21.03;100.00;101092.83;1981729;72;24243;-75
2021/08/15 18:33:18;;;;;;;20.20;19.20;;;;;;;20.94;100.00;101089.27;1980191;72;24110;-73
2021/08/15 18:35:48;;;;;;;20.57;19.57;;;;;;;20.85;100.00;101097.84;1980153;72;24204;-77
2021/08/15 18:38:18;;;;;;;21.47;20.37;;;;;;;20.88;100.00;101098.55;1980146;72;24192;-73
2021/08/15 18:40:48;;;;;;;22.30;21.20;;;;;;;20.72;100.00;101107.45;1979838;72;24110;-73
2021/08/15 18:43:19;;;;;;;22.07;20.88;;;;;;;20.74;100.00;101107.11;1979479;72;24134;-78
2021/08/15 18:45:50;;;;;;;22.60;21.48;;;;;;;20.70;100.00;101108.39;1979520;72;24601;-76
2021/08/15 18:48:21;;;;;;;22.83;21.57;;;;;;;20.73;100.00;101113.92;1979498;72;24158;-74
2021/08/15 18:50:51;;;;;;;22.40;21.17;;;;;;;20.65;100.00;101117.07;1979381;72;24173;-75
2021/08/15 18:53:21;;;;;;;22.22;21.00;;;;;;;20.59;100.00;101117.61;1979729;72;24177;-74
2021/08/15 18:58:46;;;;;;;23.22;21.93;;;;;;;20.56;100.00;101116.33;1971851;72;31086;-72
2021/08/15 19:04:11;;;;;;;23.13;21.80;;;;;;;20.53;100.00;101124.08;1971838;73;30986;-73
2021/08/15 19:09:37;;;;;;;24.93;23.53;;;;;;;20.46;100.00;101123.80;1971787;73;31037;-76
2021/08/15 19:15:03;;;;;;;24.10;22.90;;;;;;;20.44;100.00;101117.09;1972022;73;31586;-76
2021/08/15 19:20:32;;;;;;;25.43;23.87;;;;;;;20.35;100.00;101112.69;1971801;72;31018;-73
2021/08/15 19:26:16;;;;;;;26.57;24.87;;;;;;;20.19;100.00;101110.23;2015917;71;30968;-75
2021/08/15 19:31:41;;;;;;;27.53;25.73;;;;;;;20.14;100.00;101123.95;1971888;73;31492;-71
2021/08/15 19:37:06;;;;;;;28.53;26.87;;;;;;;20.12;100.00;101136.72;1971705;73;31013;-73
2021/08/15 19:42:31;;;;;;;28.33;26.60;;;;;;;20.11;100.00;101138.72;1971964;73;31539;-77
2021/08/15 19:47:56;;;;;;;29.93;28.17;;;;;;;20.03;100.00;101134.55;1971900;73;31438;-73
2021/08/15 19:53:21;;;;;;;31.17;29.27;;;;;;;19.97;100.00;101145.22;1971899;73;31476;-79
2021/08/15 19:58:46;;;;;;;31.60;29.70;;;;;;;19.96;100.00;101147.78;1971931;73;31510;-78
2021/08/15 20:04:12;;;;;;;31.23;29.33;;;;;;;19.97;100.00;101157.91;1971874;73;30985;-78
2021/08/15 20:09:39;;;;;;;33.60;31.27;;;;;;;19.88;100.00;101152.31;1971803;73;31009;-83
2021/08/15 20:15:05;;;;;;;34.73;32.57;;;;;;;19.84;100.00;101159.80;1971777;73;31013;-75
2021/08/15 20:20:30;;;;;;;34.10;32.17;;;;;;;19.83;100.00;101163.78;1971285;73;31017;-73
2021/08/15 20:26:01;;;;;;;35.83;33.70;;;;;;;19.76;100.00;101176.77;1971950;73;30920;-76
2021/08/15 20:31:27;;;;;;;37.07;34.70;;;;;;;19.73;100.00;101178.83;1971777;73;30930;-75
2021/08/15 20:36:55;;;;;;;37.20;34.73;;;;;;;19.80;100.00;101174.34;1971924;73;31015;-76
2021/08/15 20:42:19;;;;;;;42.87;40.27;;;;;;;19.61;100.00;101179.55;1971745;72;31166;-75
2021/08/15 20:47:51;;;;;;;43.30;40.77;;;;;;;19.39;100.00;101184.83;1971666;73;30970;-72
2021/08/15 20:53:15;;;;;;;43.80;41.03;;;;;;;19.31;100.00;101190.48;1971837;73;33375;-74
2021/08/15 20:58:40;;;;;;;44.13;41.53;;;;;;;19.29;100.00;101190.01;1971698;73;31045;-75
2021/08/15 21:04:05;;;;;;;45.77;43.13;;;;;;;19.13;100.00;101199.55;1972034;73;31469;-74
2021/08/15 21:09:33;;;;;;;43.50;40.93;;;;;;;19.04;100.00;101192.53;1971898;73;31095;-74
2021/08/15 21:14:57;;;;;;;46.20;43.70;;;;;;;18.96;100.00;101191.96;1971909;73;33556;-77
2021/08/15 21:20:22;;;;;;;46.87;44.07;;;;;;;19.06;100.00;101184.59;1971812;73;31067;-69
2021/08/15 21:25:46;;;;;;;47.23;44.43;;;;;;;18.87;100.00;101187.53;1971816;72;33434;-70
2021/08/15 21:31:11;;;;;;;47.43;44.60;;;;;;;18.83;100.00;101197.19;1971780;73;31071;-70
2021/08/15 21:36:37;;;;;;;45.97;43.03;;;;;;;18.99;100.00;101194.14;1971958;73;31181;-74
2021/08/15 21:42:02;;;;;;;44.50;41.90;;;;;;;18.99;100.00;101194.71;1971712;73;31051;-68
2021/08/15 21:47:27;;;;;;;44.07;41.27;;;;;;;18.89;100.00;101189.41;1971839;72;30974;-70
2021/08/15 21:52:51;;;;;;;44.57;41.77;;;;;;;18.87;100.00;101195.97;1971914;73;31487;-72
2021/08/15 21:58:17;;;;;;;46.60;43.70;;;;;;;18.77;100.00;101200.52;1971911;73;33480;-74
2021/08/15 22:03:42;;;;;;;42.40;39.80;;;;;;;18.84;100.00;101191.81;1971940;72;31040;-74
2021/08/15 22:09:06;;;;;;;43.93;41.23;;;;;;;18.85;100.00;101193.48;1971836;73;31461;-70
2021/08/15 22:14:31;;;;;;;42.80;40.10;;;;;;;18.96;100.00;101189.73;1971724;73;30968;-73